createdAt,value
2023-02-27T00:00:59.114Z,1.40
2023-02-27T00:03:26.587Z,1.63
2023-02-27T00:05:53.956Z,1.50
2023-02-27T00:08:21.104Z,1.70
2023-02-27T00:10:48.262Z,1.70
2023-02-27T00:13:15.439Z,1.67
2023-02-27T00:15:42.583Z,1.50
2023-02-27T00:18:09.740Z,1.57
2023-02-27T00:20:38.254Z,1.50
2023-02-27T00:23:06.015Z,1.67
2023-02-27T00:25:33.520Z,1.33
2023-02-27T00:28:00.700Z,1.50
2023-02-27T00:30:28.004Z,1.60
2023-02-27T00:32:55.321Z,1.50
2023-02-27T00:35:22.508Z,1.60
2023-02-27T00:37:49.810Z,1.60
2023-02-27T00:40:17.065Z,1.50
2023-02-27T00:42:46.190Z,1.70
2023-02-27T00:45:13.557Z,1.50
2023-02-27T00:47:40.766Z,1.50
2023-02-27T00:50:08.067Z,1.40
2023-02-27T00:52:35.231Z,1.53
2023-02-27T00:55:02.477Z,1.60
2023-02-27T00:57:29.731Z,1.30
2023-02-27T00:59:56.901Z,1.50
2023-02-27T01:02:24.147Z,1.43
2023-02-27T01:04:51.422Z,1.40
2023-02-27T01:07:18.612Z,1.50
2023-02-27T01:09:45.887Z,1.37
2023-02-27T01:12:13.130Z,1.30
2023-02-27T01:14:40.354Z,1.53
2023-02-27T01:17:07.498Z,1.50
2023-02-27T01:19:34.608Z,1.50
2023-02-27T01:22:01.881Z,1.53
2023-02-27T01:24:29.026Z,1.40
2023-02-27T01:26:56.231Z,1.47
2023-02-27T01:29:23.415Z,1.40
2023-02-27T01:31:50.667Z,1.60
2023-02-27T01:34:18.404Z,1.23
2023-02-27T01:36:45.539Z,1.40
2023-02-27T01:39:12.737Z,1.60
2023-02-27T01:41:39.888Z,1.43
2023-02-27T01:44:08.882Z,1.50
2023-02-27T01:46:36.084Z,1.40
2023-02-27T01:49:06.544Z,1.50
2023-02-27T01:51:36.839Z,1.50
2023-02-27T01:54:05.975Z,1.30
2023-02-27T01:56:33.524Z,1.60
2023-02-27T01:59:03.529Z,1.47
2023-02-27T02:01:32.546Z,1.50
2023-02-27T02:04:18.359Z,1.70
2023-02-27T02:06:48.487Z,1.50
2023-02-27T02:09:17.449Z,1.80
2023-02-27T02:11:44.621Z,1.70
2023-02-27T02:14:12.406Z,1.63
2023-02-27T02:16:48.802Z,1.67
2023-02-27T02:19:21.753Z,1.60
2023-02-27T02:21:57.845Z,1.60
2023-02-27T02:24:43.642Z,1.87
2023-02-27T02:27:13.970Z,1.63
2023-02-27T02:29:48.004Z,1.87
2023-02-27T02:32:24.333Z,1.83
2023-02-27T02:35:10.389Z,2.00
2023-02-27T02:37:56.466Z,1.80
2023-02-27T02:40:24.405Z,1.60
2023-02-27T02:43:06.706Z,1.50
2023-02-27T02:45:46.045Z,1.80
2023-02-27T02:48:17.457Z,1.70
2023-02-27T02:50:44.571Z,1.80
2023-02-27T02:53:11.979Z,1.97
2023-02-27T02:55:43.991Z,1.60
2023-02-27T02:58:31.344Z,1.80
2023-02-27T03:01:04.036Z,1.77
2023-02-27T03:03:33.419Z,2.00
2023-02-27T03:06:06.149Z,1.80
2023-02-27T03:08:36.800Z,1.90
2023-02-27T03:11:05.235Z,1.77
2023-02-27T03:13:38.298Z,1.70
2023-02-27T03:16:05.448Z,1.80
2023-02-27T03:18:38.036Z,2.10
2023-02-27T03:21:11.073Z,1.90
2023-02-27T03:23:42.135Z,1.90
2023-02-27T03:26:10.552Z,2.00
2023-02-27T03:28:41.353Z,2.00
2023-02-27T03:31:11.044Z,2.10
2023-02-27T03:33:46.612Z,2.00
2023-02-27T03:36:32.325Z,1.90
2023-02-27T03:39:11.031Z,1.90
2023-02-27T03:41:50.754Z,2.00
2023-02-27T03:44:17.869Z,2.13
2023-02-27T03:46:45.076Z,1.90
2023-02-27T03:49:12.300Z,1.80
2023-02-27T03:51:39.446Z,2.13
2023-02-27T03:54:17.616Z,1.73
2023-02-27T03:56:57.065Z,1.83
2023-02-27T03:59:24.759Z,1.70
2023-02-27T04:01:52.235Z,1.90
2023-02-27T04:04:19.522Z,1.87
2023-02-27T04:07:10.149Z,1.90
2023-02-27T04:09:37.258Z,1.93
2023-02-27T04:12:16.541Z,1.70
2023-02-27T04:14:52.691Z,1.90
2023-02-27T04:17:25.138Z,1.73
2023-02-27T04:20:01.500Z,1.97
2023-02-27T04:22:33.872Z,1.83
2023-02-27T04:25:02.233Z,1.90
2023-02-27T04:27:38.380Z,1.90
2023-02-27T04:30:14.489Z,1.60
2023-02-27T04:32:49.037Z,1.90
2023-02-27T04:35:21.570Z,1.90
2023-02-27T04:38:10.257Z,1.60
2023-02-27T04:40:39.595Z,1.90
2023-02-27T04:43:08.807Z,1.93
2023-02-27T04:45:38.516Z,1.80
2023-02-27T04:48:08.897Z,1.53
2023-02-27T04:50:38.247Z,2.00
2023-02-27T04:53:09.691Z,2.10
2023-02-27T04:55:40.744Z,1.77
2023-02-27T04:58:26.442Z,2.00
2023-02-27T05:00:58.081Z,1.90
2023-02-27T05:03:26.463Z,2.10
2023-02-27T05:05:56.024Z,1.73
2023-02-27T05:08:28.714Z,1.80
2023-02-27T05:10:59.469Z,1.90
2023-02-27T05:13:28.956Z,1.80
2023-02-27T05:16:03.909Z,1.70
2023-02-27T05:18:31.414Z,1.70
2023-02-27T05:21:17.625Z,1.63
2023-02-27T05:23:50.060Z,1.70
2023-02-27T05:26:19.943Z,1.90
2023-02-27T05:28:50.157Z,2.00
2023-02-27T05:31:25.522Z,2.07
2023-02-27T05:33:56.421Z,2.37
2023-02-27T05:36:35.504Z,2.40
2023-02-27T05:39:05.444Z,2.50
2023-02-27T05:41:35.367Z,2.13
2023-02-27T05:44:08.378Z,2.23
2023-02-27T05:46:37.740Z,1.73
2023-02-27T05:49:17.751Z,2.03
2023-02-27T05:51:47.131Z,1.73
2023-02-27T05:54:21.960Z,1.70
2023-02-27T05:56:50.444Z,2.00
2023-02-27T05:59:28.398Z,1.93
2023-02-27T06:01:55.813Z,1.90
2023-02-27T06:04:23.024Z,2.10
2023-02-27T06:06:50.277Z,1.90
2023-02-27T06:09:17.489Z,1.80
2023-02-27T06:11:44.732Z,2.37
2023-02-27T06:14:11.930Z,1.90
2023-02-27T06:16:39.551Z,2.00
2023-02-27T06:19:07.252Z,1.90
2023-02-27T06:21:34.354Z,1.90
2023-02-27T06:24:01.506Z,2.13
2023-02-27T06:26:28.996Z,2.10
2023-02-27T06:28:56.365Z,1.90
2023-02-27T06:31:23.492Z,1.90
2023-02-27T06:33:50.632Z,2.20
2023-02-27T06:36:17.781Z,1.73
2023-02-27T06:38:44.939Z,1.80
2023-02-27T06:41:12.133Z,2.10
2023-02-27T06:43:39.402Z,1.90
2023-02-27T06:46:06.672Z,1.77
2023-02-27T06:48:34.245Z,1.80
2023-02-27T06:51:01.369Z,2.10
2023-02-27T06:53:28.534Z,2.50
2023-02-27T06:55:55.736Z,2.27
2023-02-27T06:58:24.759Z,2.50
2023-02-27T07:00:52.023Z,2.20
2023-02-27T07:03:19.153Z,2.70
2023-02-27T07:05:46.280Z,2.57
2023-02-27T07:08:13.408Z,2.40
2023-02-27T07:10:43.935Z,2.60
2023-02-27T07:13:11.179Z,2.60
2023-02-27T07:15:38.328Z,2.70
2023-02-27T07:18:05.571Z,2.73
2023-02-27T07:20:32.825Z,2.70
2023-02-27T07:23:00.015Z,2.37
2023-02-27T07:25:27.180Z,2.80
2023-02-27T07:27:55.269Z,3.03
2023-02-27T07:30:22.711Z,2.50
2023-02-27T07:32:50.692Z,2.53
2023-02-27T07:35:18.545Z,2.50
2023-02-27T07:37:47.523Z,2.30
2023-02-27T07:40:14.875Z,2.00
2023-02-27T07:42:42.020Z,1.90
2023-02-27T07:45:09.938Z,2.60
2023-02-27T07:47:37.143Z,1.80
2023-02-27T07:50:04.749Z,2.00
2023-02-27T07:52:32.016Z,1.73
2023-02-27T07:54:59.240Z,1.83
2023-02-27T07:57:26.369Z,1.90
2023-02-27T07:59:53.493Z,1.83
2023-02-27T08:02:20.718Z,1.87
2023-02-27T08:04:47.898Z,1.90
2023-02-27T08:07:15.112Z,1.90
2023-02-27T08:09:42.244Z,2.23
2023-02-27T08:12:09.392Z,1.80
2023-02-27T08:14:36.588Z,2.30
2023-02-27T08:17:03.781Z,2.10
2023-02-27T08:19:31.094Z,2.30
2023-02-27T08:21:58.231Z,2.77
2023-02-27T08:24:25.425Z,2.63
2023-02-27T08:26:52.592Z,3.00
2023-02-27T08:29:19.764Z,2.60
2023-02-27T08:31:47.116Z,2.80
2023-02-27T08:34:14.334Z,2.53
2023-02-27T08:36:41.598Z,2.63
2023-02-27T08:39:09.253Z,2.50
2023-02-27T08:41:36.477Z,2.60
2023-02-27T08:44:03.670Z,2.80
2023-02-27T08:46:30.912Z,2.13
2023-02-27T08:48:58.065Z,2.50
2023-02-27T08:51:25.401Z,2.20
2023-02-27T08:53:54.937Z,2.60
2023-02-27T08:56:22.091Z,2.40
2023-02-27T08:58:49.225Z,2.60
2023-02-27T09:01:16.502Z,2.50
2023-02-27T09:03:43.707Z,2.43
2023-02-27T09:06:11.072Z,2.10
2023-02-27T09:08:38.438Z,2.40
2023-02-27T09:11:05.734Z,2.10
2023-02-27T09:13:33.185Z,2.50
2023-02-27T09:16:00.365Z,2.20
2023-02-27T09:18:27.561Z,2.13
2023-02-27T09:20:56.445Z,2.23
2023-02-27T09:23:23.572Z,2.57
2023-02-27T09:25:50.745Z,2.10
2023-02-27T09:28:17.925Z,2.13
2023-02-27T09:30:45.118Z,2.53
2023-02-27T09:33:12.331Z,2.37
2023-02-27T09:35:39.600Z,2.50
2023-02-27T09:38:07.145Z,2.30
2023-02-27T09:40:39.825Z,2.27
2023-02-27T09:43:28.216Z,2.37
2023-02-27T09:45:56.264Z,2.30
2023-02-27T09:48:39.580Z,2.53
2023-02-27T09:51:06.863Z,2.37
2023-02-27T09:53:41.430Z,2.30
2023-02-27T09:56:21.078Z,2.50
2023-02-27T09:59:03.452Z,2.40
2023-02-27T10:01:30.622Z,2.40
2023-02-27T10:04:13.674Z,2.30
2023-02-27T10:06:44.631Z,2.13
2023-02-27T10:09:36.272Z,2.13
2023-02-27T10:12:18.029Z,2.10
2023-02-27T10:14:48.201Z,2.07
2023-02-27T10:17:24.576Z,2.00
2023-02-27T10:19:53.045Z,2.33
2023-02-27T10:22:27.295Z,2.10
2023-02-27T10:25:29.914Z,2.20
2023-02-27T10:28:01.415Z,2.30
2023-02-27T10:30:32.906Z,2.20
2023-02-27T10:33:04.481Z,2.00
2023-02-27T10:35:33.464Z,1.93
2023-02-27T10:38:02.460Z,1.90
2023-02-27T10:40:30.219Z,1.80
2023-02-27T10:42:58.433Z,1.77
2023-02-27T10:45:25.608Z,1.70
2023-02-27T10:47:52.879Z,1.80
2023-02-27T10:50:33.645Z,1.63
2023-02-27T10:53:03.043Z,1.50
2023-02-27T10:55:31.765Z,1.43
2023-02-27T10:57:59.822Z,1.80
2023-02-27T11:00:31.548Z,1.80
2023-02-27T11:02:59.143Z,1.67
2023-02-27T11:05:31.591Z,1.80
2023-02-27T11:08:11.401Z,1.60
2023-02-27T11:10:38.578Z,1.60
2023-02-27T11:13:07.349Z,1.80
2023-02-27T11:15:35.834Z,1.50
2023-02-27T11:18:25.405Z,1.87
2023-02-27T11:20:52.533Z,1.50
2023-02-27T11:23:26.227Z,1.77
2023-02-27T11:26:09.326Z,1.70
2023-02-27T11:28:36.504Z,2.03
2023-02-27T11:31:17.825Z,1.83
2023-02-27T11:33:55.976Z,2.10
2023-02-27T11:36:23.770Z,1.70
2023-02-27T11:38:52.820Z,1.60
2023-02-27T11:41:20.132Z,1.77
2023-02-27T11:43:49.119Z,1.40
2023-02-27T11:46:43.262Z,1.60
2023-02-27T11:49:18.179Z,1.67
2023-02-27T11:51:53.174Z,1.60
2023-02-27T11:54:34.717Z,1.30
2023-02-27T11:57:04.814Z,1.30
2023-02-27T11:59:45.213Z,1.00
2023-02-27T12:02:25.944Z,1.00
2023-02-27T12:05:00.332Z,1.10
2023-02-27T12:07:34.772Z,1.10
2023-02-27T12:10:09.040Z,1.10
2023-02-27T12:12:47.309Z,1.20
2023-02-27T12:15:23.553Z,0.90
2023-02-27T12:18:10.862Z,1.20
2023-02-27T12:20:44.265Z,1.23
2023-02-27T12:23:24.773Z,1.53
2023-02-27T12:25:54.722Z,1.50
2023-02-27T12:28:26.109Z,1.40
2023-02-27T12:31:02.372Z,1.37
2023-02-27T12:33:39.271Z,1.40
2023-02-27T12:36:10.827Z,1.30
2023-02-27T12:38:38.417Z,2.03
2023-02-27T12:41:27.423Z,1.50
2023-02-27T12:44:03.887Z,1.50
2023-02-27T12:46:38.486Z,1.70
2023-02-27T12:49:11.806Z,1.50
2023-02-27T12:52:04.283Z,1.70
2023-02-27T12:54:44.642Z,1.50
2023-02-27T12:57:19.282Z,1.30
2023-02-27T12:59:46.386Z,1.30
2023-02-27T13:02:25.480Z,1.50
2023-02-27T13:05:02.992Z,1.33
2023-02-27T13:07:44.404Z,1.73
2023-02-27T13:10:15.297Z,1.40
2023-02-27T13:12:45.037Z,1.30
2023-02-27T13:15:27.093Z,1.43
2023-02-27T13:18:29.799Z,1.30
2023-02-27T13:21:12.626Z,1.53
2023-02-27T13:23:44.400Z,1.70
2023-02-27T13:26:26.694Z,1.30
2023-02-27T13:28:54.554Z,1.20
2023-02-27T13:31:21.856Z,1.50
2023-02-27T13:33:49.310Z,1.20
2023-02-27T13:36:19.555Z,1.20
2023-02-27T13:38:48.290Z,1.27
2023-02-27T13:41:36.985Z,1.20
2023-02-27T13:44:22.628Z,1.40
2023-02-27T13:46:49.774Z,1.10
2023-02-27T13:49:28.834Z,1.10
2023-02-27T13:51:59.396Z,0.93
2023-02-27T13:54:28.559Z,0.60
2023-02-27T13:56:57.541Z,0.93
2023-02-27T13:59:29.965Z,0.90
2023-02-27T14:02:01.776Z,0.90
2023-02-27T14:04:30.653Z,1.10
2023-02-27T14:07:01.970Z,0.90
2023-02-27T14:09:34.196Z,1.20
2023-02-27T14:12:02.554Z,1.20
2023-02-27T14:14:40.022Z,1.10
2023-02-27T14:17:07.630Z,1.10
2023-02-27T14:19:34.764Z,1.27
2023-02-27T14:22:05.025Z,1.33
2023-02-27T14:24:36.342Z,1.20
2023-02-27T14:27:04.586Z,1.20
2023-02-27T14:29:33.566Z,1.20
2023-02-27T14:32:02.743Z,1.20
2023-02-27T14:34:30.493Z,1.03
2023-02-27T14:37:00.307Z,1.10
2023-02-27T14:39:29.301Z,1.20
2023-02-27T14:42:04.781Z,1.50
2023-02-27T14:44:38.366Z,1.60
2023-02-27T14:47:06.849Z,1.57
2023-02-27T14:49:35.085Z,1.47
2023-02-27T14:52:12.478Z,1.50
2023-02-27T14:54:39.628Z,1.50
2023-02-27T14:57:07.342Z,1.60
2023-02-27T14:59:42.392Z,1.50
2023-02-27T15:02:16.666Z,1.40
2023-02-27T15:04:43.891Z,1.47
2023-02-27T15:07:17.821Z,1.70
2023-02-27T15:09:49.137Z,1.60
2023-02-27T15:12:20.508Z,1.57
2023-02-27T15:14:48.840Z,1.77
2023-02-27T15:17:19.161Z,1.50
2023-02-27T15:19:50.799Z,1.67
2023-02-27T15:22:36.206Z,1.60
2023-02-27T15:25:07.723Z,1.80
2023-02-27T15:27:37.048Z,1.80
2023-02-27T15:30:04.858Z,1.90
2023-02-27T15:32:33.647Z,1.90
2023-02-27T15:35:03.025Z,1.80
2023-02-27T15:37:31.683Z,1.90
2023-02-27T15:39:59.891Z,1.90
2023-02-27T15:42:29.321Z,2.00
2023-02-27T15:44:56.917Z,1.80
2023-02-27T15:47:25.759Z,1.70
2023-02-27T15:49:59.432Z,1.80
2023-02-27T15:52:27.859Z,1.93
2023-02-27T15:55:02.339Z,2.00
2023-02-27T15:57:30.657Z,1.83
2023-02-27T15:59:58.469Z,1.90
2023-02-27T16:02:41.263Z,1.80
2023-02-27T16:05:15.802Z,1.83
2023-02-27T16:07:43.596Z,1.50
2023-02-27T16:10:17.370Z,1.60
2023-02-27T16:12:44.940Z,1.70
2023-02-27T16:15:24.342Z,1.70
2023-02-27T16:18:04.445Z,1.40
2023-02-27T16:20:37.454Z,1.67
2023-02-27T16:23:04.568Z,1.27
2023-02-27T16:25:31.769Z,1.40
2023-02-27T16:27:59.000Z,1.47
2023-02-27T16:30:26.204Z,1.50
2023-02-27T16:32:58.374Z,1.47
2023-02-27T16:35:25.749Z,1.87
2023-02-27T16:37:53.504Z,1.50
2023-02-27T16:40:21.137Z,1.70
2023-02-27T16:42:48.462Z,1.73
2023-02-27T16:45:19.744Z,1.83
2023-02-27T16:47:51.109Z,1.60
2023-02-27T16:50:29.029Z,1.90
2023-02-27T16:52:57.133Z,1.53
2023-02-27T16:55:24.541Z,1.83
2023-02-27T16:57:51.699Z,1.83
2023-02-27T17:00:19.556Z,2.13
2023-02-27T17:02:48.185Z,1.80
2023-02-27T17:05:15.552Z,1.90
2023-02-27T17:07:42.883Z,2.20
2023-02-27T17:10:12.296Z,1.90
2023-02-27T17:12:39.456Z,1.70
2023-02-27T17:15:06.885Z,1.80
2023-02-27T17:17:34.020Z,1.97
2023-02-27T17:20:01.864Z,2.00
2023-02-27T17:22:29.036Z,2.20
2023-02-27T17:24:56.156Z,2.07
2023-02-27T17:27:23.285Z,2.87
2023-02-27T17:29:50.522Z,2.30
2023-02-27T17:32:17.717Z,1.90
2023-02-27T17:34:44.926Z,2.40
2023-02-27T17:37:12.047Z,2.20
2023-02-27T17:39:39.337Z,1.90
2023-02-27T17:42:06.500Z,2.10
2023-02-27T17:44:33.679Z,2.27
2023-02-27T17:47:00.821Z,2.10
2023-02-27T17:49:27.926Z,2.53
2023-02-27T17:51:55.084Z,2.20
2023-02-27T17:54:22.251Z,2.40
2023-02-27T17:56:49.366Z,2.00
2023-02-27T17:59:16.505Z,2.10
2023-02-27T18:01:43.723Z,2.10
2023-02-27T18:04:11.345Z,2.20
2023-02-27T18:06:38.909Z,2.20
2023-02-27T18:09:06.242Z,2.10
2023-02-27T18:11:33.651Z,2.53
2023-02-27T18:14:00.872Z,2.20
2023-02-27T18:16:28.340Z,2.00
2023-02-27T18:18:55.703Z,2.47
2023-02-27T18:21:24.462Z,3.90
2023-02-27T18:23:52.433Z,2.80
2023-02-27T18:26:32.798Z,2.70
2023-02-27T18:29:01.053Z,2.53
2023-02-27T18:31:32.460Z,2.50
2023-02-27T18:34:00.186Z,2.53
2023-02-27T18:36:28.089Z,2.10
2023-02-27T18:38:56.645Z,2.23
2023-02-27T18:41:24.150Z,2.53
2023-02-27T18:43:51.876Z,2.50
2023-02-27T18:46:19.129Z,4.27
2023-02-27T18:48:46.287Z,5.00
2023-02-27T18:51:14.743Z,5.40
2023-02-27T18:53:44.256Z,3.70
2023-02-27T18:56:12.053Z,2.73
2023-02-27T18:58:39.533Z,2.40
2023-02-27T19:01:07.411Z,2.57
2023-02-27T19:03:35.867Z,2.40
2023-02-27T19:06:03.480Z,2.23
2023-02-27T19:08:31.425Z,2.33
2023-02-27T19:10:59.428Z,2.40
2023-02-27T19:13:27.213Z,2.50
2023-02-27T19:15:55.014Z,2.63
2023-02-27T19:18:22.229Z,2.07
2023-02-27T19:20:49.390Z,2.67
2023-02-27T19:23:16.529Z,2.80
2023-02-27T19:25:43.879Z,2.30
2023-02-27T19:28:12.207Z,2.27
2023-02-27T19:30:39.914Z,2.33
2023-02-27T19:33:07.385Z,2.60
2023-02-27T19:35:34.581Z,4.47
2023-02-27T19:38:01.723Z,4.60
2023-02-27T19:40:29.357Z,3.70
2023-02-27T19:42:57.149Z,2.53
2023-02-27T19:45:24.550Z,2.47
2023-02-27T19:47:51.771Z,2.40
2023-02-27T19:50:18.976Z,3.30
2023-02-27T19:52:46.154Z,2.40
2023-02-27T19:55:13.840Z,2.30
2023-02-27T19:57:41.084Z,2.40
2023-02-27T20:00:09.102Z,2.53
2023-02-27T20:02:36.237Z,2.40
2023-02-27T20:05:03.449Z,2.20
2023-02-27T20:07:32.036Z,2.27
2023-02-27T20:09:59.335Z,2.33
2023-02-27T20:12:26.496Z,2.37
2023-02-27T20:14:53.674Z,2.40
2023-02-27T20:17:21.675Z,2.43
2023-02-27T20:19:48.790Z,2.10
2023-02-27T20:22:16.997Z,2.10
2023-02-27T20:24:44.727Z,2.20
2023-02-27T20:27:12.040Z,2.33
2023-02-27T20:29:40.401Z,2.50
2023-02-27T20:32:07.673Z,2.20
2023-02-27T20:34:34.948Z,2.40
2023-02-27T20:37:03.099Z,2.60
2023-02-27T20:39:30.314Z,2.43
2023-02-27T20:41:57.495Z,2.40
2023-02-27T20:44:24.627Z,2.37
2023-02-27T20:46:51.814Z,2.50
2023-02-27T20:49:18.986Z,2.60
2023-02-27T20:51:46.383Z,2.30
2023-02-27T20:54:16.387Z,2.30
2023-02-27T20:56:44.028Z,2.60
2023-02-27T20:59:13.591Z,2.47
2023-02-27T21:01:40.896Z,2.57
2023-02-27T21:04:08.398Z,2.40
2023-02-27T21:06:35.690Z,2.30
2023-02-27T21:09:04.809Z,2.93
2023-02-27T21:11:33.205Z,2.97
2023-02-27T21:14:05.889Z,3.17
2023-02-27T21:16:33.397Z,2.93
2023-02-27T21:19:00.560Z,2.80
2023-02-27T21:21:29.679Z,2.90
2023-02-27T21:23:57.555Z,2.80
2023-02-27T21:26:34.976Z,2.83
2023-02-27T21:29:04.045Z,2.60
2023-02-27T21:31:32.830Z,3.00
2023-02-27T21:34:01.480Z,2.97
2023-02-27T21:36:29.899Z,2.93
2023-02-27T21:39:00.910Z,3.00
2023-02-27T21:41:28.490Z,3.90
2023-02-27T21:43:59.404Z,4.00
2023-02-27T21:46:26.656Z,4.60
2023-02-27T21:48:54.013Z,4.70
2023-02-27T21:51:36.851Z,4.03
2023-02-27T21:54:05.752Z,4.37
2023-02-27T21:56:32.963Z,3.80
2023-02-27T21:59:01.663Z,3.50
2023-02-27T22:01:29.689Z,3.50
2023-02-27T22:03:57.396Z,3.50
2023-02-27T22:06:25.471Z,3.60
2023-02-27T22:08:56.433Z,3.20
2023-02-27T22:11:24.793Z,3.83
2023-02-27T22:13:51.934Z,3.70
2023-02-27T22:16:19.971Z,3.80
2023-02-27T22:18:47.472Z,3.60
2023-02-27T22:21:17.173Z,4.07
2023-02-27T22:23:47.450Z,3.60
2023-02-27T22:26:19.467Z,3.67
2023-02-27T22:28:46.658Z,3.50
2023-02-27T22:31:13.815Z,3.70
2023-02-27T22:33:41.553Z,3.73
2023-02-27T22:36:10.070Z,3.83
2023-02-27T22:38:37.624Z,3.70
2023-02-27T22:41:05.937Z,3.57
2023-02-27T22:43:33.967Z,3.90
2023-02-27T22:46:01.809Z,3.57
2023-02-27T22:48:29.214Z,3.80
2023-02-27T22:51:07.306Z,4.30
2023-02-27T22:53:38.435Z,4.20
2023-02-27T22:56:06.982Z,3.80
2023-02-27T22:58:37.137Z,4.00
2023-02-27T23:01:28.649Z,4.20
2023-02-27T23:03:57.705Z,4.20
2023-02-27T23:06:26.354Z,3.70
2023-02-27T23:08:53.636Z,3.90
2023-02-27T23:11:21.305Z,4.20
2023-02-27T23:13:48.901Z,4.20
2023-02-27T23:16:17.079Z,3.77
2023-02-27T23:18:46.076Z,3.47
2023-02-27T23:21:14.025Z,3.57
2023-02-27T23:23:41.212Z,3.20
2023-02-27T23:26:08.670Z,3.00
2023-02-27T23:28:36.711Z,2.70
2023-02-27T23:31:04.675Z,2.77
2023-02-27T23:33:32.292Z,2.53
2023-02-27T23:35:59.842Z,2.90
2023-02-27T23:38:27.631Z,2.23
2023-02-27T23:40:55.082Z,2.37
2023-02-27T23:43:22.716Z,2.20
2023-02-27T23:45:50.207Z,2.73
2023-02-27T23:48:17.422Z,2.47
2023-02-27T23:50:45.115Z,2.60
2023-02-27T23:53:13.577Z,2.50
2023-02-27T23:55:41.218Z,2.53
2023-02-27T23:58:09.780Z,2.43
